Osgood, Indiana
Current Conditions -  °F | °C
As of 3:33 AM on Monday 26 Jan 2015 (Local Time) from KIMS Reporting Station
Overcast Overcast  
Wind Chill: 15°   Ceiling: 1300
Heat Index: 27°   Visibility: 10mi
Dew Point: 21°   Wind: 14mph
Humidity: 80%   Direction: 330°NNW
Pressure: 29.82"   Gusts: 22mph
Location:  39.13°N, 85.29°W
Report Text: KIMS 260833Z AUTO 33012G19KT 10SM OVC013 M03/M06 A2982 RMK AO1
Loading
Personal Weather Stations






























Interactive Weather Map New forecast layout! Learn more

10-Day Weather Forecast

Advertisements
Track Severe Weather on mobile